Time;durP1;ratioP1;P1;durP2;ratioP2;P2;SDS_P1;SDS_P2;PMS_P1;PMS_P2;Temp;Humidity;BMP_temperature;BMP_pressure;BME280_temperature;BME280_humidity;BME280_pressure;Samples;Min_cycle;Max_cycle;Signal;HPM_P1;HPM_P2
2021/01/27 00:01:12;;;;;;;2.20;1.02;;;0.60;76.80;;;;;;4986247;28;20038;-72
2021/01/27 00:03:38;;;;;;;1.60;0.60;;;0.60;76.60;;;;;;4989044;28;20493;-72
2021/01/27 00:06:04;;;;;;;2.45;0.77;;;0.80;76.50;;;;;;4998943;28;20070;-72
2021/01/27 00:08:29;;;;;;;2.50;0.70;;;0.70;77.10;;;;;;5003508;28;20026;-72
2021/01/27 00:10:55;;;;;;;3.78;1.23;;;0.70;75.90;;;;;;5010460;28;20045;-72
2021/01/27 00:13:21;;;;;;;1.88;0.75;;;0.80;76.10;;;;;;4998869;28;20034;-72
2021/01/27 00:15:47;;;;;;;2.10;0.73;;;0.70;76.70;;;;;;4988412;28;20030;-72
2021/01/27 00:18:17;;;;;;;3.35;1.20;;;0.70;75.60;;;;;;4994658;28;20108;-72
2021/01/27 00:20:43;;;;;;;1.40;0.63;;;0.70;76.50;;;;;;4991638;28;20029;-72
2021/01/27 00:23:08;;;;;;;1.15;0.70;;;0.60;77.90;;;;;;5002311;28;20396;-72
2021/01/27 00:25:36;;;;;;;2.65;0.90;;;0.30;79.10;;;;;;4988917;28;20153;-72
2021/01/27 00:28:03;;;;;;;3.05;0.93;;;0.30;77.70;;;;;;4989174;28;20060;-72
2021/01/27 00:30:35;;;;;;;1.63;0.70;;;0.30;79.40;;;;;;4996542;28;20037;-72
2021/01/27 00:33:02;;;;;;;4.07;0.90;;;0.30;78.30;;;;;;4993841;28;20033;-72
2021/01/27 00:35:30;;;;;;;1.40;0.77;;;-0.10;81.50;;;;;;4990541;28;20413;-71
2021/01/27 00:37:57;;;;;;;1.73;0.80;;;0.00;81.40;;;;;;4988690;28;20041;-72
2021/01/27 00:40:23;;;;;;;1.08;0.60;;;0.10;79.40;;;;;;5010343;28;20104;-72
2021/01/27 00:42:50;;;;;;;1.55;0.50;;;0.00;80.60;;;;;;5012716;28;20068;-72
2021/01/27 00:45:16;;;;;;;1.85;0.88;;;0.00;82.50;;;;;;5009329;28;20045;-72
2021/01/27 00:47:42;;;;;;;3.97;1.30;;;-0.30;83.50;;;;;;4997216;28;20061;-72
2021/01/27 00:50:09;;;;;;;1.23;0.70;;;-0.60;84.40;;;;;;4998557;28;20057;-72
2021/01/27 00:52:35;;;;;;;2.45;1.05;;;-0.50;83.90;;;;;;5000401;28;20305;-72
2021/01/27 00:55:01;;;;;;;1.75;0.75;;;-0.40;83.60;;;;;;4990556;28;20108;-72
2021/01/27 00:57:27;;;;;;;1.02;0.60;;;-0.50;83.80;;;;;;4988184;28;20105;-72
2021/01/27 00:59:53;;;;;;;1.05;0.88;;;-0.40;83.60;;;;;;4990468;28;20021;-72
2021/01/27 01:02:18;;;;;;;1.40;0.60;;;-0.40;84.50;;;;;;4991065;28;20057;-72
2021/01/27 01:04:44;;;;;;;1.40;0.70;;;-0.20;80.40;;;;;;4999086;28;20508;-72
2021/01/27 01:07:10;;;;;;;0.70;0.50;;;0.20;79.80;;;;;;4987488;28;20077;-72
2021/01/27 01:09:35;;;;;;;1.20;0.60;;;-0.20;82.00;;;;;;4988312;28;20508;-71
2021/01/27 01:12:01;;;;;;;1.05;0.65;;;-0.30;82.50;;;;;;4987425;28;20032;-72
2021/01/27 01:14:27;;;;;;;6.55;1.02;;;-0.40;83.10;;;;;;4989713;28;20034;-72
2021/01/27 01:16:52;;;;;;;2.17;0.50;;;-0.40;82.40;;;;;;4997270;28;20034;-72
2021/01/27 01:19:18;;;;;;;1.52;0.65;;;-0.40;82.60;;;;;;4992002;28;20037;-71
2021/01/27 01:21:44;;;;;;;2.08;0.95;;;-0.40;81.70;;;;;;4988271;28;20069;-72
2021/01/27 01:24:10;;;;;;;1.95;0.75;;;-0.50;83.00;;;;;;4989994;28;20037;-72
2021/01/27 01:26:36;;;;;;;1.37;0.83;;;-0.50;82.60;;;;;;4988325;28;20104;-71
2021/01/27 01:29:02;;;;;;;1.20;0.60;;;-0.30;80.40;;;;;;5000189;28;20041;-72
2021/01/27 01:31:28;;;;;;;2.58;1.13;;;-0.10;79.60;;;;;;4987043;28;20089;-72
2021/01/27 01:33:54;;;;;;;2.73;0.97;;;0.10;78.50;;;;;;4988646;28;20228;-71
2021/01/27 01:36:19;;;;;;;1.88;0.70;;;0.10;79.10;;;;;;4987657;28;20041;-72
2021/01/27 01:38:45;;;;;;;1.52;0.75;;;0.20;77.90;;;;;;4992443;28;20436;-72
2021/01/27 01:41:11;;;;;;;2.17;0.82;;;0.30;77.80;;;;;;4988147;28;20029;-70
2021/01/27 01:43:40;;;;;;;1.90;0.68;;;0.20;78.40;;;;;;4986476;28;20030;-72
2021/01/27 01:46:13;;;;;;;1.67;0.77;;;0.00;79.20;;;;;;4988772;28;20446;-72
2021/01/27 01:48:56;;;;;;;2.00;1.10;;;0.20;78.20;;;;;;4994465;28;20044;-72
2021/01/27 01:51:39;;;;;;;1.48;0.60;;;0.10;79.00;;;;;;4986784;28;20040;-72
2021/01/27 01:54:14;;;;;;;1.48;0.50;;;-0.30;81.90;;;;;;4986620;28;20042;-72
2021/01/27 01:56:43;;;;;;;1.83;0.65;;;-0.50;82.50;;;;;;4990393;28;20362;-72
2021/01/27 01:59:11;;;;;;;1.17;0.55;;;-0.70;83.00;;;;;;4994073;28;20022;-72
2021/01/27 02:01:40;;;;;;;2.10;0.63;;;-0.90;84.90;;;;;;4987006;28;20393;-72
2021/01/27 02:04:06;;;;;;;1.58;0.95;;;-1.10;86.20;;;;;;4987391;28;20084;-72
2021/01/27 02:06:32;;;;;;;1.50;0.80;;;-0.90;84.10;;;;;;4998623;28;20046;-72
2021/01/27 02:08:58;;;;;;;2.03;0.90;;;-1.00;84.90;;;;;;4989416;28;20038;-72
2021/01/27 02:11:36;;;;;;;1.60;0.60;;;-0.90;84.80;;;;;;4992870;28;20038;-72
2021/01/27 02:14:18;;;;;;;0.93;0.38;;;-0.90;84.50;;;;;;4989378;28;20081;-72
2021/01/27 02:16:52;;;;;;;1.88;0.82;;;-0.90;84.80;;;;;;4998366;28;20037;-72
2021/01/27 02:19:50;;;;;;;1.20;0.65;;;-0.80;84.20;;;;;;4989984;28;20065;-72
2021/01/27 02:22:38;;;;;;;1.77;0.60;;;-0.50;82.20;;;;;;4992019;28;20029;-72
2021/01/27 02:25:30;;;;;;;2.53;0.43;;;-0.80;84.00;;;;;;4991197;28;20037;-72
2021/01/27 02:27:59;;;;;;;1.33;0.50;;;-1.00;85.10;;;;;;4986800;28;20054;-72
2021/01/27 02:30:53;;;;;;;3.47;0.70;;;-0.80;83.70;;;;;;4995185;28;20511;-72
2021/01/27 02:33:46;;;;;;;1.27;0.50;;;-0.90;84.70;;;;;;4986221;28;20057;-72
2021/01/27 02:36:21;;;;;;;1.33;0.68;;;-1.00;84.30;;;;;;4992283;28;20042;-72
2021/01/27 02:39:01;;;;;;;2.57;0.60;;;-1.10;85.40;;;;;;4992625;28;20056;-73
2021/01/27 02:42:03;;;;;;;2.30;0.80;;;-0.90;83.40;;;;;;4985495;28;20176;-73
2021/01/27 02:44:42;;;;;;;2.17;0.93;;;-0.60;82.40;;;;;;4986545;28;20100;-72
2021/01/27 02:47:15;;;;;;;1.17;0.63;;;-1.10;85.10;;;;;;4987192;28;20476;-72
2021/01/27 02:49:49;;;;;;;0.90;0.40;;;-1.20;85.10;;;;;;4991611;28;20038;-72
2021/01/27 02:52:20;;;;;;;1.23;0.50;;;-0.80;83.10;;;;;;4988023;28;20042;-72
2021/01/27 02:54:51;;;;;;;1.73;0.63;;;-0.80;83.00;;;;;;4991678;28;20038;-73
2021/01/27 02:57:34;;;;;;;0.73;0.30;;;-0.80;83.40;;;;;;4997160;28;20081;-72
2021/01/27 03:00:04;;;;;;;2.22;0.73;;;-1.00;84.70;;;;;;4986783;28;20022;-72
2021/01/27 03:02:35;;;;;;;0.33;0.30;;;-1.20;86.20;;;;;;4986362;28;20030;-72
2021/01/27 03:05:13;;;;;;;0.80;0.40;;;-1.30;86.10;;;;;;4996643;28;20048;-72
2021/01/27 03:07:40;;;;;;;0.80;0.30;;;-1.10;85.40;;;;;;4993224;28;20022;-72
2021/01/27 03:10:06;;;;;;;1.10;0.50;;;-1.00;84.30;;;;;;4988940;28;20583;-72
2021/01/27 03:12:33;;;;;;;0.88;0.40;;;-1.00;84.40;;;;;;4988279;28;20030;-72
2021/01/27 03:14:58;;;;;;;1.23;0.40;;;-1.20;85.10;;;;;;4990481;28;20077;-72
2021/01/27 03:17:27;;;;;;;0.77;0.40;;;-0.70;82.30;;;;;;4991440;28;20796;-72
2021/01/27 03:20:08;;;;;;;1.10;0.30;;;-0.80;83.20;;;;;;4988828;28;20131;-73
2021/01/27 03:23:15;;;;;;;2.77;0.50;;;-1.00;84.70;;;;;;4989728;28;20034;-71
2021/01/27 03:25:48;;;;;;;0.60;0.53;;;-1.10;85.40;;;;;;4984428;28;20057;-72
2021/01/27 03:28:22;;;;;;;1.60;0.53;;;-1.20;85.50;;;;;;4993719;28;21360;-71
2021/01/27 03:30:48;;;;;;;1.47;0.60;;;-1.00;84.40;;;;;;4988151;28;20046;-72
2021/01/27 03:33:26;;;;;;;10.15;1.58;;;-1.10;84.40;;;;;;4996818;28;20033;-72
2021/01/27 03:35:56;;;;;;;0.57;0.30;;;-1.10;85.20;;;;;;5009452;28;20168;-71
2021/01/27 03:38:38;;;;;;;1.23;1.00;;;-1.10;85.10;;;;;;5008287;28;20662;-72
2021/01/27 03:41:25;;;;;;;0.70;0.30;;;-1.20;85.40;;;;;;5008521;28;20431;-72
2021/01/27 03:44:08;;;;;;;3.40;0.57;;;-1.10;84.50;;;;;;5009829;28;20041;-72
2021/01/27 03:46:42;;;;;;;1.37;0.40;;;-1.00;84.70;;;;;;4989381;28;20041;-72
2021/01/27 03:49:24;;;;;;;0.20;0.20;;;-1.10;84.60;;;;;;4996420;28;20113;-72
2021/01/27 03:52:30;;;;;;;3.37;0.43;;;-1.20;85.10;;;;;;4984774;28;20362;-72
2021/01/27 03:55:02;;;;;;;0.95;0.50;;;-1.00;85.70;;;;;;4984881;28;20045;-72
2021/01/27 03:57:33;;;;;;;1.37;0.50;;;-1.00;84.20;;;;;;4985456;28;20033;-72
2021/01/27 03:59:59;;;;;;;1.20;0.32;;;-1.20;85.40;;;;;;4992258;28;20481;-72
2021/01/27 04:02:25;;;;;;;0.90;0.40;;;-1.30;86.20;;;;;;4986429;28;20034;-73
2021/01/27 04:04:51;;;;;;;1.33;0.70;;;-1.30;86.80;;;;;;4985280;28;20397;-73
2021/01/27 04:07:17;;;;;;;0.67;0.30;;;-1.30;86.80;;;;;;4979483;28;20038;-72
2021/01/27 04:09:43;;;;;;;2.43;1.00;;;-1.30;87.30;;;;;;4989974;28;20038;-72
2021/01/27 04:12:09;;;;;;;0.90;0.40;;;-1.30;85.80;;;;;;4983798;28;20041;-73
2021/01/27 04:14:35;;;;;;;0.30;0.17;;;-1.40;87.30;;;;;;4979721;28;20030;-72
2021/01/27 04:17:31;;;;;;;1.87;0.87;;;-1.40;87.40;;;;;;4991975;28;20374;-72
2021/01/27 04:19:57;;;;;;;;;;;-1.60;88.00;;;;;;4978211;28;20141;-73
2021/01/27 04:22:24;;;;;;;0.37;0.33;;;-1.40;87.30;;;;;;4980039;28;19913;-72
2021/01/27 04:24:50;;;;;;;1.27;0.50;;;-1.50;88.50;;;;;;4979724;28;20052;-73
2021/01/27 04:27:16;;;;;;;2.50;0.50;;;-1.70;89.10;;;;;;4984664;28;20034;-73
2021/01/27 04:29:42;;;;;;;0.63;0.30;;;-1.50;87.60;;;;;;4984574;28;20042;-72
2021/01/27 04:32:08;;;;;;;0.93;0.40;;;-1.50;88.00;;;;;;4987756;28;21476;-72
2021/01/27 04:34:34;;;;;;;1.63;0.40;;;-1.60;88.80;;;;;;4981561;28;20399;-72
2021/01/27 04:37:01;;;;;;;1.27;0.50;;;-1.60;88.90;;;;;;4978240;28;20088;-73
2021/01/27 04:39:27;;;;;;;1.90;0.60;;;-1.30;86.30;;;;;;4982016;28;20120;-73
2021/01/27 04:41:54;;;;;;;1.03;0.47;;;-0.90;84.10;;;;;;4978598;28;20030;-72
2021/01/27 04:44:21;;;;;;;0.40;0.38;;;-0.90;84.20;;;;;;4981163;28;20040;-72
2021/01/27 04:47:21;;;;;;;1.63;0.60;;;-1.00;84.60;;;;;;4980981;28;20030;-72
2021/01/27 04:49:53;;;;;;;1.47;0.53;;;-1.30;86.50;;;;;;4984945;28;20563;-73
2021/01/27 04:52:23;;;;;;;1.33;0.50;;;-1.00;84.00;;;;;;4980645;28;20334;-73
2021/01/27 04:55:40;;;;;;;1.23;0.47;;;-1.00;85.20;;;;;;4982152;28;20034;-73
2021/01/27 04:58:06;;;;;;;1.17;0.53;;;-1.10;85.30;;;;;;4957054;28;20121;-72
2021/01/27 05:00:35;;;;;;;1.70;0.60;;;-0.90;84.40;;;;;;4983181;28;20026;-72
2021/01/27 05:03:19;;;;;;;1.27;0.50;;;-1.10;85.00;;;;;;4982380;28;20065;-72
2021/01/27 05:05:53;;;;;;;1.85;0.80;;;-1.20;86.30;;;;;;4984088;28;20040;-72
2021/01/27 05:08:31;;;;;;;3.13;0.95;;;-1.60;89.90;;;;;;4982127;28;20890;-73
2021/01/27 05:11:07;;;;;;;3.10;1.10;;;-1.70;91.00;;;;;;4988905;28;20041;-72
2021/01/27 05:13:40;;;;;;;1.50;0.73;;;-1.80;90.80;;;;;;4983590;28;20053;-72
2021/01/27 05:16:16;;;;;;;3.13;0.60;;;-1.90;92.80;;;;;;4990001;28;20038;-72
2021/01/27 05:18:43;;;;;;;0.70;0.50;;;-2.20;92.90;;;;;;4983280;28;20037;-73
2021/01/27 05:21:26;;;;;;;0.83;0.67;;;-2.10;93.40;;;;;;4987895;28;20520;-72
2021/01/27 05:23:53;;;;;;;2.47;0.67;;;-2.10;92.70;;;;;;4983572;28;20863;-73
2021/01/27 05:26:21;;;;;;;1.77;0.60;;;-2.00;92.60;;;;;;4981313;28;20266;-72
2021/01/27 05:29:04;;;;;;;1.47;0.57;;;-2.00;92.80;;;;;;4980227;28;20033;-72
2021/01/27 05:32:07;;;;;;;2.17;0.90;;;-2.00;93.80;;;;;;4981237;28;20046;-72
2021/01/27 05:34:39;;;;;;;3.03;1.00;;;-2.10;92.70;;;;;;4988507;28;20029;-72
2021/01/27 05:37:28;;;;;;;2.17;0.80;;;-2.10;92.60;;;;;;4982305;28;20026;-72
2021/01/27 05:40:17;;;;;;;1.73;0.63;;;-2.00;92.10;;;;;;4970562;28;20512;-72
2021/01/27 05:42:44;;;;;;;12.07;4.30;;;-2.00;92.40;;;;;;4984507;28;20049;-72
2021/01/27 05:45:33;;;;;;;2.57;1.10;;;-2.10;94.00;;;;;;4989193;28;20552;-72
2021/01/27 05:48:32;;;;;;;3.43;0.97;;;-2.00;93.80;;;;;;4981817;28;20025;-72
2021/01/27 05:51:06;;;;;;;2.00;1.10;;;-2.20;93.40;;;;;;4987150;28;20014;-72
2021/01/27 05:53:33;;;;;;;3.63;1.30;;;-2.10;93.10;;;;;;4984631;28;20034;-72
2021/01/27 05:56:19;;;;;;;3.47;0.77;;;-2.10;93.20;;;;;;4988714;28;20037;-72
2021/01/27 05:58:54;;;;;;;2.50;0.70;;;-2.20;93.80;;;;;;4989506;28;20457;-73
2021/01/27 06:01:26;;;;;;;4.53;1.60;;;-2.20;93.20;;;;;;4987253;28;20037;-73
2021/01/27 06:03:57;;;;;;;2.10;0.40;;;-2.00;92.70;;;;;;4982563;28;20120;-72
2021/01/27 06:06:24;;;;;;;0.77;0.50;;;-1.80;90.60;;;;;;4988475;28;20128;-73
2021/01/27 06:08:53;;;;;;;2.00;0.60;;;-1.50;88.30;;;;;;4985678;28;20492;-72
2021/01/27 06:11:20;;;;;;;2.47;0.70;;;-1.60;90.20;;;;;;4982004;28;21156;-73
2021/01/27 06:13:47;;;;;;;0.97;0.47;;;-1.70;90.50;;;;;;4982276;28;20045;-73
2021/01/27 06:16:30;;;;;;;1.33;0.40;;;-1.70;90.10;;;;;;4987261;28;20061;-73
2021/01/27 06:19:16;;;;;;;1.73;0.40;;;-1.50;90.10;;;;;;4984913;28;20509;-73
2021/01/27 06:22:15;;;;;;;1.70;0.50;;;-1.90;90.60;;;;;;4980607;28;20362;-72
2021/01/27 06:25:03;;;;;;;8.43;0.70;;;-1.70;90.10;;;;;;4981412;28;20710;-73
2021/01/27 06:27:50;;;;;;;0.87;0.40;;;-1.70;90.00;;;;;;4981505;28;20030;-73
2021/01/27 06:30:48;;;;;;;1.60;0.57;;;-1.60;89.20;;;;;;4988166;28;20036;-73
2021/01/27 06:33:48;;;;;;;7.90;1.43;;;-1.50;89.50;;;;;;4942934;28;20035;-75
2021/01/27 06:36:56;;;;;;;3.03;1.37;;;-1.90;91.30;;;;;;4942036;28;20034;-73
2021/01/27 06:39:59;;;;;;;4.63;1.15;;;-1.90;92.20;;;;;;4942569;28;20042;-72
2021/01/27 06:42:40;;;;;;;2.73;1.20;;;-2.10;91.80;;;;;;4942300;28;20674;-72
2021/01/27 06:45:11;;;;;;;5.83;1.30;;;-2.20;92.00;;;;;;4944019;28;20074;-75
2021/01/27 06:48:01;;;;;;;3.43;1.40;;;-2.30;92.50;;;;;;4950364;28;20471;-76
2021/01/27 06:50:47;;;;;;;6.00;1.40;;;-2.40;93.00;;;;;;4942890;28;20504;-76
2021/01/27 06:53:22;;;;;;;2.20;0.90;;;-2.10;92.00;;;;;;4943599;28;20031;-74
2021/01/27 06:55:54;;;;;;;1.57;0.80;;;-2.00;91.50;;;;;;4943694;28;20086;-76
2021/01/27 06:58:41;;;;;;;2.23;1.07;;;-2.00;91.40;;;;;;4942880;28;20070;-76
2021/01/27 07:01:43;;;;;;;4.23;1.10;;;-2.00;91.40;;;;;;4941901;28;20046;-76
2021/01/27 07:04:44;;;;;;;1.90;1.00;;;-1.90;90.90;;;;;;4944284;28;20035;-77
2021/01/27 07:07:37;;;;;;;3.83;1.00;;;-1.90;91.20;;;;;;4951282;28;20049;-76
2021/01/27 07:10:08;;;;;;;36.83;12.13;;;-2.10;91.40;;;;;;4955767;28;20035;-77
2021/01/27 07:12:40;;;;;;;15.60;7.33;;;-2.00;92.00;;;;;;4942169;28;20042;-77
2021/01/27 07:15:27;;;;;;;8.67;2.87;;;-2.10;93.90;;;;;;4945104;28;20154;-76
2021/01/27 07:18:21;;;;;;;2.43;0.90;;;-2.10;94.30;;;;;;4948032;28;20035;-76
2021/01/27 07:20:58;;;;;;;2.73;1.23;;;-2.40;93.30;;;;;;4941850;28;20738;-75
2021/01/27 07:23:44;;;;;;;1.40;0.60;;;-2.40;93.20;;;;;;4941023;28;20035;-76
2021/01/27 07:26:21;;;;;;;2.17;0.70;;;-2.30;92.20;;;;;;4958513;28;20057;-76
2021/01/27 07:29:03;;;;;;;1.47;0.70;;;-2.10;91.20;;;;;;4954255;28;20043;-76
2021/01/27 07:31:44;;;;;;;2.97;1.37;;;-1.90;91.40;;;;;;4956066;28;20544;-76
2021/01/27 07:34:19;;;;;;;4.77;1.43;;;-2.10;92.50;;;;;;4980806;28;20036;-76
2021/01/27 07:37:04;;;;;;;5.70;1.70;;;-2.10;92.30;;;;;;4976635;28;20070;-76
2021/01/27 07:39:39;;;;;;;5.40;1.57;;;-2.20;92.60;;;;;;4998449;28;20108;-75
2021/01/27 07:42:36;;;;;;;4.57;1.13;;;-2.40;92.00;;;;;;4985726;28;20038;-77
2021/01/27 07:45:07;;;;;;;4.77;1.70;;;-2.40;92.20;;;;;;4989680;28;20045;-76
2021/01/27 07:47:57;;;;;;;2.73;1.33;;;-2.40;92.90;;;;;;5003174;28;20104;-75
2021/01/27 07:50:25;;;;;;;4.50;0.97;;;-2.40;92.70;;;;;;4994669;28;20237;-75
2021/01/27 07:53:25;;;;;;;4.93;0.63;;;-2.50;93.60;;;;;;4983705;28;20026;-75
2021/01/27 07:56:21;;;;;;;1.93;0.90;;;-2.40;94.40;;;;;;4974456;28;20075;-75
2021/01/27 07:59:04;;;;;;;2.00;1.10;;;-2.30;95.00;;;;;;4980330;28;20042;-75
2021/01/27 08:01:39;;;;;;;3.13;1.20;;;-2.40;96.90;;;;;;5002188;28;20923;-75
2021/01/27 08:04:27;;;;;;;;;;;-2.40;96.50;;;;;;4984144;28;20026;-75
2021/01/27 08:06:56;;;;;;;3.60;1.43;;;-2.40;95.10;;;;;;4982698;28;20403;-75
2021/01/27 08:09:42;;;;;;;4.30;2.23;;;-2.40;93.40;;;;;;4994683;28;20018;-75
2021/01/27 08:12:10;;;;;;;;;;;-2.30;93.60;;;;;;5004849;28;20045;-76
2021/01/27 08:15:06;;;;;;;4.90;2.10;;;-2.30;94.70;;;;;;5001458;28;20035;-75
2021/01/27 08:17:45;;;;;;;3.73;1.40;;;-2.40;94.70;;;;;;4985018;28;20045;-77
2021/01/27 08:20:39;;;;;;;3.60;1.27;;;-2.50;94.20;;;;;;4987394;28;20109;-75
2021/01/27 08:23:19;;;;;;;3.60;1.30;;;-2.50;95.00;;;;;;4985310;28;20062;-75
2021/01/27 08:25:58;;;;;;;4.07;1.60;;;-2.20;92.90;;;;;;4983444;28;20124;-76
2021/01/27 08:28:35;;;;;;;9.37;3.60;;;-1.90;92.30;;;;;;4980722;28;20053;-76
2021/01/27 08:31:10;;;;;;;7.00;2.53;;;-1.70;92.70;;;;;;4982529;28;20054;-75
2021/01/27 08:33:47;;;;;;;8.90;3.40;;;-1.50;92.80;;;;;;4979341;28;20069;-75
2021/01/27 08:36:22;;;;;;;24.70;9.97;;;-1.40;92.30;;;;;;4981466;28;20029;-75
2021/01/27 08:39:07;;;;;;;7.90;3.25;;;-1.30;92.20;;;;;;4996327;28;20053;-75
2021/01/27 08:42:17;;;;;;;3.33;1.30;;;-1.30;93.50;;;;;;4994024;28;20155;-76
2021/01/27 08:44:43;;;;;;;3.70;1.10;;;-1.30;91.00;;;;;;4988177;28;20108;-77
2021/01/27 08:47:34;;;;;;;8.53;3.60;;;-1.00;89.60;;;;;;4988153;28;20030;-76
2021/01/27 08:50:01;;;;;;;11.80;6.35;;;-0.80;89.90;;;;;;4985687;28;20026;-76
2021/01/27 08:52:27;;;;;;;4.25;2.35;;;-0.80;90.80;;;;;;4990901;28;20072;-76
2021/01/27 08:54:53;;;;;;;3.73;1.17;;;-0.70;90.90;;;;;;4986193;28;20117;-75
2021/01/27 08:57:21;;;;;;;9.93;3.15;;;-0.70;90.20;;;;;;4987981;28;20041;-75
2021/01/27 08:59:53;;;;;;;7.20;3.45;;;-0.50;89.80;;;;;;4994395;28;20109;-75
2021/01/27 09:02:40;;;;;;;8.60;3.97;;;-0.40;90.60;;;;;;4986591;28;20032;-76
2021/01/27 09:05:19;;;;;;;61.17;30.30;;;-0.30;90.60;;;;;;4990745;28;20080;-76
2021/01/27 09:08:10;;;;;;;5.90;2.80;;;-0.40;90.50;;;;;;4993045;28;20084;-75
2021/01/27 09:10:37;;;;;;;25.57;9.87;;;-0.60;90.80;;;;;;4989891;28;20435;-77
2021/01/27 09:13:22;;;;;;;15.73;8.60;;;-0.40;90.40;;;;;;4983291;28;20111;-76
2021/01/27 09:15:54;;;;;;;4.80;3.10;;;-0.20;90.00;;;;;;4983287;28;20066;-76
2021/01/27 09:18:20;;;;;;;5.03;2.00;;;-0.10;89.10;;;;;;4989362;28;20504;-77
2021/01/27 09:20:46;;;;;;;8.02;4.18;;;-0.20;88.50;;;;;;4985062;28;20109;-76
2021/01/27 09:23:17;;;;;;;10.20;4.53;;;0.00;89.50;;;;;;5000552;28;20069;-75
2021/01/27 09:25:49;;;;;;;5.90;2.92;;;0.00;88.70;;;;;;5007474;28;20038;-75
2021/01/27 09:28:24;;;;;;;8.52;5.22;;;0.10;90.00;;;;;;5005160;28;20034;-75
2021/01/27 09:30:53;;;;;;;6.68;3.85;;;-0.20;90.80;;;;;;5004200;28;20045;-75
2021/01/27 09:33:33;;;;;;;10.18;4.18;;;-0.20;90.70;;;;;;5006143;28;20038;-76
2021/01/27 09:36:14;;;;;;;10.48;5.15;;;-0.10;90.40;;;;;;4994720;28;20034;-76
2021/01/27 09:38:40;;;;;;;28.60;15.60;;;-0.30;90.30;;;;;;4986486;28;20041;-76
2021/01/27 09:41:11;;;;;;;11.57;6.03;;;-0.30;90.20;;;;;;5007002;28;20615;-78
2021/01/27 09:43:44;;;;;;;5.00;2.03;;;-0.20;88.80;;;;;;5005272;28;20041;-76
2021/01/27 09:46:36;;;;;;;7.07;2.55;;;-0.10;88.40;;;;;;4984562;28;20046;-76
2021/01/27 09:49:07;;;;;;;6.60;2.22;;;-0.10;90.00;;;;;;4983823;28;21056;-76
2021/01/27 09:51:33;;;;;;;3.80;1.90;;;-0.10;90.10;;;;;;5000540;28;20034;-76
2021/01/27 09:54:01;;;;;;;3.53;1.80;;;-0.10;89.10;;;;;;5006471;28;20018;-77
2021/01/27 09:56:29;;;;;;;6.50;2.05;;;0.00;90.20;;;;;;4988833;28;20030;-75
2021/01/27 09:58:57;;;;;;;7.93;3.33;;;-0.10;90.60;;;;;;4980929;28;20089;-76
2021/01/27 10:01:27;;;;;;;6.95;3.03;;;-0.10;90.70;;;;;;4987994;28;20084;-75
2021/01/27 10:04:10;;;;;;;5.30;2.60;;;-0.10;90.60;;;;;;4986892;28;20058;-77
2021/01/27 10:06:52;;;;;;;9.88;3.35;;;0.00;90.80;;;;;;4985020;28;20046;-76
2021/01/27 10:09:24;;;;;;;6.97;3.70;;;0.00;90.90;;;;;;5002496;28;20034;-75
2021/01/27 10:12:12;;;;;;;9.85;4.65;;;0.20;91.30;;;;;;4990193;28;20034;-75
2021/01/27 10:14:40;;;;;;;14.32;2.80;;;0.10;90.50;;;;;;4989024;28;20053;-76
2021/01/27 10:17:09;;;;;;;4.38;1.60;;;0.20;88.70;;;;;;4982937;28;20042;-76
2021/01/27 10:19:52;;;;;;;4.93;1.45;;;0.30;85.40;;;;;;4983147;28;20026;-76
2021/01/27 10:22:27;;;;;;;8.75;3.05;;;0.40;86.90;;;;;;5004537;28;20128;-76
2021/01/27 10:25:03;;;;;;;8.98;3.83;;;0.30;90.40;;;;;;5004322;28;20522;-76
2021/01/27 10:27:38;;;;;;;5.47;2.70;;;0.40;90.50;;;;;;4987840;28;20052;-76
2021/01/27 10:30:28;;;;;;;6.30;2.03;;;0.40;90.50;;;;;;4983898;28;20033;-75
2021/01/27 10:32:54;;;;;;;4.25;2.00;;;0.50;88.60;;;;;;5005492;28;20049;-75
2021/01/27 10:35:24;;;;;;;5.43;2.33;;;0.50;86.50;;;;;;4994151;28;20453;-76
2021/01/27 10:38:04;;;;;;;7.13;3.50;;;0.50;86.40;;;;;;5003725;28;20026;-75
2021/01/27 10:40:31;;;;;;;7.20;4.32;;;0.60;88.00;;;;;;4983156;28;20469;-76
2021/01/27 10:43:02;;;;;;;6.40;3.60;;;0.60;87.60;;;;;;4979611;28;20061;-76
2021/01/27 10:45:27;;;;;;;5.75;2.65;;;0.70;86.10;;;;;;4981016;28;20080;-76
2021/01/27 10:47:59;;;;;;;7.88;2.38;;;0.70;84.20;;;;;;4983223;28;20397;-76
2021/01/27 10:50:26;;;;;;;7.57;2.45;;;0.80;85.10;;;;;;4985973;28;20100;-76
2021/01/27 10:52:53;;;;;;;4.95;2.13;;;0.70;86.40;;;;;;4987539;28;20072;-75
2021/01/27 10:55:20;;;;;;;4.85;2.35;;;0.80;86.80;;;;;;4982304;28;20124;-75
2021/01/27 10:57:46;;;;;;;8.65;2.60;;;0.70;85.60;;;;;;4980589;28;20079;-76
2021/01/27 11:00:22;;;;;;;4.28;1.92;;;0.70;85.80;;;;;;4980227;28;20099;-75
2021/01/27 11:02:58;;;;;;;9.10;1.90;;;0.70;87.00;;;;;;4982271;28;20353;-76
2021/01/27 11:05:24;;;;;;;6.88;2.13;;;0.80;87.40;;;;;;4990039;28;20030;-76
2021/01/27 11:07:50;;;;;;;7.22;2.60;;;0.70;87.60;;;;;;4980081;28;20053;-76
2021/01/27 11:10:16;;;;;;;10.65;2.47;;;0.80;87.80;;;;;;4981589;28;20030;-75
2021/01/27 11:12:41;;;;;;;8.23;2.85;;;0.80;86.40;;;;;;4980388;28;20038;-75
2021/01/27 11:15:08;;;;;;;7.40;2.65;;;0.70;86.50;;;;;;4983136;28;20071;-75
2021/01/27 11:17:34;;;;;;;5.97;2.53;;;0.80;88.30;;;;;;4990711;28;20033;-75
2021/01/27 11:19:59;;;;;;;6.45;2.40;;;0.80;87.60;;;;;;4984606;28;20034;-75
2021/01/27 11:22:25;;;;;;;4.57;1.80;;;0.80;86.80;;;;;;4986656;28;20116;-75
2021/01/27 11:24:51;;;;;;;5.68;2.40;;;0.80;86.00;;;;;;5003260;28;20030;-76
2021/01/27 11:27:17;;;;;;;7.93;2.88;;;0.90;86.30;;;;;;4980034;28;20029;-76
2021/01/27 11:29:42;;;;;;;8.73;2.67;;;1.00;87.00;;;;;;4992048;28;21037;-76
2021/01/27 11:32:08;;;;;;;6.28;1.65;;;1.00;85.60;;;;;;4998248;28;20049;-75
2021/01/27 11:34:34;;;;;;;4.55;2.00;;;1.00;86.00;;;;;;4986051;28;20033;-76
2021/01/27 11:37:00;;;;;;;7.22;2.10;;;1.10;84.60;;;;;;4987850;28;20026;-75
2021/01/27 11:39:25;;;;;;;5.90;3.13;;;1.00;87.00;;;;;;4979360;28;20293;-76
2021/01/27 11:41:51;;;;;;;4.40;2.15;;;1.00;86.30;;;;;;4980678;28;20099;-75
2021/01/27 11:44:17;;;;;;;4.25;2.03;;;1.10;86.70;;;;;;4991902;28;20030;-75
2021/01/27 11:46:46;;;;;;;4.65;2.65;;;1.00;86.30;;;;;;5004468;28;20038;-76
2021/01/27 11:49:14;;;;;;;9.10;2.30;;;1.00;86.30;;;;;;4982503;28;20476;-75
2021/01/27 11:51:40;;;;;;;8.70;2.42;;;1.00;85.80;;;;;;4982219;28;20066;-75
2021/01/27 11:54:06;;;;;;;3.78;1.63;;;1.20;85.80;;;;;;4978804;28;20026;-75
2021/01/27 11:56:32;;;;;;;3.60;1.40;;;1.10;84.90;;;;;;4979282;28;20750;-75
2021/01/27 11:58:58;;;;;;;4.00;1.40;;;1.10;82.80;;;;;;4987032;28;20093;-75
2021/01/27 12:01:30;;;;;;;8.00;1.52;;;1.20;82.20;;;;;;4981816;28;20034;-75
2021/01/27 12:03:56;;;;;;;5.00;2.00;;;1.20;83.30;;;;;;4980299;28;20091;-75
2021/01/27 12:06:22;;;;;;;3.15;1.27;;;1.20;84.30;;;;;;4981774;28;20153;-75
2021/01/27 12:08:48;;;;;;;2.70;1.25;;;1.10;83.00;;;;;;4979240;28;20120;-75
2021/01/27 12:11:14;;;;;;;4.00;1.60;;;1.10;82.70;;;;;;4984992;28;20034;-75
2021/01/27 12:13:42;;;;;;;3.88;1.33;;;1.10;83.60;;;;;;4979375;28;20033;-75
2021/01/27 12:16:08;;;;;;;3.55;1.65;;;1.20;83.20;;;;;;4979673;28;20037;-75
2021/01/27 12:18:33;;;;;;;4.88;1.40;;;1.30;85.80;;;;;;4978707;28;20029;-75
2021/01/27 12:20:59;;;;;;;4.63;1.20;;;1.40;85.00;;;;;;4985365;28;20516;-74
2021/01/27 12:23:25;;;;;;;2.67;1.08;;;1.50;84.20;;;;;;4985144;28;20041;-75
2021/01/27 12:25:50;;;;;;;4.22;1.20;;;1.40;83.20;;;;;;4981191;28;20034;-75
2021/01/27 12:28:16;;;;;;;2.85;1.17;;;1.40;83.80;;;;;;4979276;28;21842;-75
2021/01/27 12:30:42;;;;;;;5.50;1.23;;;1.30;81.80;;;;;;4984255;28;20371;-75
2021/01/27 12:33:09;;;;;;;3.25;1.15;;;1.20;81.80;;;;;;4979463;28;20049;-75
2021/01/27 12:35:35;;;;;;;2.45;1.48;;;1.20;83.50;;;;;;4979768;28;20033;-75
2021/01/27 12:38:02;;;;;;;7.53;2.15;;;1.40;83.70;;;;;;4984391;28;20326;-74
2021/01/27 12:40:29;;;;;;;9.20;1.90;;;1.40;82.60;;;;;;4979864;28;20785;-74
2021/01/27 12:42:55;;;;;;;3.97;1.20;;;1.40;83.30;;;;;;4979582;28;20045;-74
2021/01/27 12:45:23;;;;;;;4.13;1.95;;;1.50;81.60;;;;;;4979235;28;20042;-74
2021/01/27 12:47:49;;;;;;;7.95;2.38;;;1.50;83.70;;;;;;4984953;28;20033;-75
2021/01/27 12:50:15;;;;;;;5.65;2.60;;;1.40;85.20;;;;;;4984764;28;20502;-74
2021/01/27 12:52:41;;;;;;;4.45;1.60;;;1.50;86.10;;;;;;4981873;28;21670;-75
2021/01/27 12:55:13;;;;;;;3.20;1.50;;;1.50;84.10;;;;;;4980464;28;20473;-74
2021/01/27 12:57:44;;;;;;;4.43;1.85;;;1.40;84.00;;;;;;4993483;28;20387;-74
2021/01/27 13:00:14;;;;;;;5.60;2.90;;;1.50;83.50;;;;;;4990829;28;20034;-75
2021/01/27 13:02:40;;;;;;;8.63;2.95;;;1.50;86.30;;;;;;4985784;28;20042;-75
2021/01/27 13:05:06;;;;;;;6.50;3.83;;;1.40;85.60;;;;;;4982832;28;20042;-75
2021/01/27 13:07:32;;;;;;;9.85;5.30;;;1.50;86.40;;;;;;4983075;28;20025;-74
2021/01/27 13:09:57;;;;;;;9.80;3.80;;;1.60;86.80;;;;;;4982311;28;20069;-74
2021/01/27 13:12:24;;;;;;;6.88;3.15;;;1.50;86.20;;;;;;4982261;28;20112;-75
2021/01/27 13:14:51;;;;;;;6.25;2.50;;;1.40;87.40;;;;;;4982351;28;20030;-75
2021/01/27 13:17:17;;;;;;;7.13;3.53;;;1.50;87.50;;;;;;4982411;28;20034;-74
2021/01/27 13:19:43;;;;;;;7.32;2.65;;;1.50;87.20;;;;;;4981325;28;20049;-74
2021/01/27 13:22:08;;;;;;;5.88;2.53;;;1.50;85.80;;;;;;4981781;28;20042;-74
2021/01/27 13:24:34;;;;;;;7.75;3.63;;;1.40;87.10;;;;;;5003573;28;20037;-75